Time;durP1;ratioP1;P1;durP2;ratioP2;P2;SDS_P1;SDS_P2;PMS_P1;PMS_P2;Temp;Humidity;BMP_temperature;BMP_pressure;BME280_temperature;BME280_humidity;BME280_pressure;Samples;Min_cycle;Max_cycle;Signal;HPM_P1;HPM_P2
2022/10/21 00:00:09;;;;;;;11.38;6.13;;;10.10;77.90;;;;;;4226432;27;20050;-85
2022/10/21 00:02:28;;;;;;;9.15;6.10;;;10.10;78.00;;;;;;4231088;27;20627;-85
2022/10/21 00:04:48;;;;;;;13.13;6.47;;;10.20;78.00;;;;;;4191503;28;20048;-85
2022/10/21 00:07:07;;;;;;;9.30;5.70;;;10.20;78.10;;;;;;4219959;27;20051;-85
2022/10/21 00:09:26;;;;;;;11.55;6.57;;;10.10;78.00;;;;;;4227962;27;20564;-84
2022/10/21 00:11:45;;;;;;;12.30;6.18;;;10.20;78.20;;;;;;4209307;28;20077;-84
2022/10/21 00:14:05;;;;;;;12.13;6.63;;;10.20;78.20;;;;;;4226861;27;20384;-85
2022/10/21 00:16:24;;;;;;;13.07;7.07;;;10.20;78.20;;;;;;4230047;27;20033;-84
2022/10/21 00:18:45;;;;;;;11.73;7.32;;;10.20;78.20;;;;;;4223898;27;20042;-85
2022/10/21 00:21:15;;;;;;;10.07;6.50;;;10.20;78.20;;;;;;4213549;27;20101;-85
2022/10/21 00:23:34;;;;;;;13.57;7.43;;;10.10;78.10;;;;;;4231782;27;20497;-85
2022/10/21 00:25:57;;;;;;;10.30;7.10;;;10.20;78.20;;;;;;4222933;28;20039;-84
2022/10/21 00:28:16;;;;;;;9.52;6.28;;;10.20;78.30;;;;;;4229499;27;20501;-84
2022/10/21 00:30:35;;;;;;;11.25;6.95;;;10.20;78.30;;;;;;4215924;28;20039;-84
2022/10/21 00:32:54;;;;;;;10.55;7.13;;;10.20;78.30;;;;;;4231688;27;20057;-86
2022/10/21 00:35:13;;;;;;;12.32;6.93;;;10.20;78.20;;;;;;4229263;27;20038;-84
2022/10/21 00:37:33;;;;;;;12.88;7.10;;;10.20;78.30;;;;;;4227231;27;20153;-84
2022/10/21 00:39:52;;;;;;;13.38;7.38;;;10.20;78.30;;;;;;4223166;27;20694;-85
2022/10/21 00:42:17;;;;;;;13.73;7.47;;;10.20;78.30;;;;;;4225201;27;20153;-84
2022/10/21 00:44:36;;;;;;;10.73;6.80;;;10.20;78.40;;;;;;4217208;28;20542;-85
2022/10/21 00:47:04;;;;;;;11.77;7.47;;;10.20;78.30;;;;;;4214041;28;20031;-85
2022/10/21 00:49:29;;;;;;;10.68;7.32;;;10.30;78.40;;;;;;4210153;28;20039;-85
2022/10/21 00:51:52;;;;;;;10.15;6.75;;;10.30;78.40;;;;;;4227494;28;20039;-84
2022/10/21 00:54:12;;;;;;;12.70;6.70;;;10.40;78.50;;;;;;4232920;27;20047;-84
2022/10/21 00:56:33;;;;;;;15.77;7.55;;;10.30;78.40;;;;;;4229713;27;20091;-85
2022/10/21 00:58:55;;;;;;;14.23;7.25;;;10.40;79.30;;;;;;4225159;28;20173;-84
2022/10/21 01:01:14;;;;;;;11.75;7.43;;;10.30;78.50;;;;;;4231529;28;20096;-85
2022/10/21 01:03:34;;;;;;;13.50;7.55;;;10.30;78.60;;;;;;4220557;28;20076;-85
2022/10/21 01:05:57;;;;;;;15.25;8.00;;;10.30;78.60;;;;;;4241028;27;20093;-84
2022/10/21 01:08:18;;;;;;;13.73;7.60;;;10.30;78.60;;;;;;4209143;28;20047;-84
2022/10/21 01:10:38;;;;;;;15.93;8.27;;;10.30;78.60;;;;;;4216004;28;21159;-84
2022/10/21 01:13:30;;;;;;;12.25;7.82;;;10.30;78.60;;;;;;4227516;28;20051;-84
2022/10/21 01:16:09;;;;;;;12.85;8.05;;;10.30;78.70;;;;;;4226192;28;20154;-84
2022/10/21 01:18:55;;;;;;;17.98;7.60;;;10.30;78.60;;;;;;4230902;28;20030;-85
2022/10/21 01:21:21;;;;;;;12.77;8.32;;;10.40;78.80;;;;;;4212144;28;20066;-84
2022/10/21 01:23:49;;;;;;;12.88;7.63;;;10.40;78.60;;;;;;4220417;28;20160;-85
2022/10/21 01:26:51;;;;;;;13.90;8.20;;;10.40;79.30;;;;;;4211065;28;20070;-85
2022/10/21 01:29:10;;;;;;;16.10;7.65;;;10.40;78.80;;;;;;4229611;28;20514;-84
2022/10/21 01:31:37;;;;;;;13.38;7.88;;;10.40;78.50;;;;;;4229929;28;20043;-84
2022/10/21 01:34:18;;;;;;;12.57;8.23;;;10.40;78.60;;;;;;4231534;27;20038;-84
2022/10/21 01:36:48;;;;;;;15.23;8.60;;;10.40;78.70;;;;;;4226518;28;20085;-85
2022/10/21 01:39:10;;;;;;;16.30;8.95;;;10.40;78.60;;;;;;4225693;28;20119;-84
2022/10/21 01:41:34;;;;;;;14.75;8.50;;;10.40;78.50;;;;;;4226782;28;20034;-84
2022/10/21 01:44:03;;;;;;;13.75;8.35;;;10.40;79.30;;;;;;4222895;28;20111;-84
2022/10/21 01:46:25;;;;;;;14.15;9.02;;;10.40;78.50;;;;;;4229973;28;20514;-85
2022/10/21 01:48:51;;;;;;;15.05;8.82;;;10.50;78.60;;;;;;4212712;27;20043;-85
2022/10/21 01:51:12;;;;;;;15.27;8.93;;;10.40;78.60;;;;;;4215860;27;20039;-85
2022/10/21 01:53:42;;;;;;;16.33;9.23;;;10.40;78.60;;;;;;4218744;28;20123;-84
2022/10/21 01:56:03;;;;;;;12.80;8.60;;;10.40;78.70;;;;;;4232995;27;20403;-84
2022/10/21 01:58:30;;;;;;;16.92;9.85;;;10.40;78.60;;;;;;4216378;28;20461;-85
2022/10/21 02:00:52;;;;;;;17.15;10.10;;;10.50;78.70;;;;;;4226506;27;20074;-84
2022/10/21 02:03:18;;;;;;;17.77;10.57;;;10.40;78.60;;;;;;4233285;27;20085;-85
2022/10/21 02:05:38;;;;;;;21.20;10.75;;;10.40;78.60;;;;;;4237639;27;20399;-84
2022/10/21 02:07:58;;;;;;;20.00;10.63;;;10.40;78.60;;;;;;4228850;27;20064;-84
2022/10/21 02:10:17;;;;;;;17.75;10.30;;;10.50;78.70;;;;;;4209979;28;20071;-85
2022/10/21 02:12:38;;;;;;;18.60;9.80;;;10.40;78.70;;;;;;4206532;27;20047;-85
2022/10/21 02:14:59;;;;;;;18.15;9.65;;;10.50;78.80;;;;;;4214757;27;20043;-85
2022/10/21 02:17:20;;;;;;;17.30;10.38;;;10.50;78.80;;;;;;4229960;27;20061;-85
2022/10/21 02:19:40;;;;;;;19.42;10.75;;;10.40;78.80;;;;;;4235899;27;20027;-84
2022/10/21 02:22:03;;;;;;;27.85;12.07;;;10.40;78.80;;;;;;4228111;27;20562;-84
2022/10/21 02:24:29;;;;;;;17.55;10.70;;;10.40;78.90;;;;;;4223016;27;20795;-84
2022/10/21 02:26:48;;;;;;;20.77;11.20;;;10.40;78.90;;;;;;4225929;27;20197;-84
2022/10/21 02:29:08;;;;;;;19.45;11.15;;;10.40;78.90;;;;;;4214339;28;20042;-84
2022/10/21 02:31:36;;;;;;;21.50;11.95;;;10.40;78.90;;;;;;4225936;27;20064;-84
2022/10/21 02:34:29;;;;;;;22.20;11.38;;;10.40;79.70;;;;;;4205617;28;20058;-84
2022/10/21 02:36:57;;;;;;;21.15;12.32;;;10.50;79.20;;;;;;4213058;27;20079;-84
2022/10/21 02:39:42;;;;;;;19.45;10.77;;;10.50;79.00;;;;;;4222763;28;20039;-85
2022/10/21 02:42:06;;;;;;;22.67;11.90;;;10.50;79.30;;;;;;4234052;27;20092;-84
2022/10/21 02:44:25;;;;;;;20.55;11.45;;;10.50;79.10;;;;;;4222937;28;20039;-84
2022/10/21 02:46:46;;;;;;;21.08;13.05;;;10.50;79.10;;;;;;4225552;27;20043;-84
2022/10/21 02:49:06;;;;;;;21.60;12.82;;;10.50;79.10;;;;;;4245416;27;20032;-84
2022/10/21 02:51:25;;;;;;;22.15;12.60;;;10.50;79.10;;;;;;4233407;27;20046;-84
2022/10/21 02:53:44;;;;;;;27.45;13.25;;;10.60;79.20;;;;;;4236945;27;20506;-85
2022/10/21 02:56:04;;;;;;;21.27;11.73;;;10.50;79.10;;;;;;4230122;27;20107;-84
2022/10/21 02:58:23;;;;;;;23.48;14.13;;;10.50;79.10;;;;;;4229338;27;20056;-84
2022/10/21 03:00:42;;;;;;;25.25;14.52;;;10.50;79.20;;;;;;4229742;27;20050;-84
2022/10/21 03:03:01;;;;;;;23.08;13.68;;;10.50;79.20;;;;;;4226385;27;20039;-84
2022/10/21 03:05:20;;;;;;;25.25;13.00;;;10.50;79.20;;;;;;4236827;27;20386;-85
2022/10/21 03:07:40;;;;;;;23.83;13.55;;;10.50;79.20;;;;;;4215133;28;20503;-84
2022/10/21 03:09:59;;;;;;;24.50;13.27;;;10.50;79.30;;;;;;4218052;27;20064;-84
2022/10/21 03:12:18;;;;;;;29.33;13.48;;;10.50;79.30;;;;;;4211307;27;20028;-84
2022/10/21 03:14:37;;;;;;;25.25;13.23;;;10.50;79.30;;;;;;4223085;27;20082;-85
2022/10/21 03:16:56;;;;;;;30.90;13.82;;;10.50;79.30;;;;;;4231439;27;20093;-85
2022/10/21 03:19:15;;;;;;;27.08;13.45;;;10.50;79.20;;;;;;4245794;27;20053;-84
2022/10/21 03:21:34;;;;;;;31.23;13.65;;;10.50;79.20;;;;;;4243865;27;20071;-84
2022/10/21 03:23:54;;;;;;;28.83;15.25;;;10.50;79.30;;;;;;4234151;27;20042;-84
2022/10/21 03:26:13;;;;;;;25.13;14.05;;;10.50;79.30;;;;;;4238712;27;20595;-85
2022/10/21 03:28:32;;;;;;;27.48;13.40;;;10.50;79.30;;;;;;4220765;27;20083;-84
2022/10/21 03:30:51;;;;;;;26.35;13.25;;;10.50;79.20;;;;;;4234250;27;20073;-85
2022/10/21 03:33:10;;;;;;;25.95;12.80;;;10.50;79.20;;;;;;4231807;27;20078;-85
2022/10/21 03:35:29;;;;;;;25.35;13.70;;;10.50;79.20;;;;;;4230580;27;20103;-85
2022/10/21 03:37:48;;;;;;;23.20;13.75;;;10.50;79.10;;;;;;4212420;28;20108;-84
2022/10/21 03:40:08;;;;;;;26.98;14.07;;;10.50;79.10;;;;;;4229800;27;20042;-84
2022/10/21 03:42:28;;;;;;;43.25;15.75;;;10.50;79.20;;;;;;4225495;27;20046;-84
2022/10/21 03:44:47;;;;;;;31.60;15.18;;;10.50;79.20;;;;;;4226846;27;20070;-85
2022/10/21 03:47:06;;;;;;;44.20;15.38;;;10.40;79.00;;;;;;4213133;27;20573;-84
2022/10/21 03:49:25;;;;;;;43.20;14.20;;;10.50;79.10;;;;;;4231199;27;20058;-84
2022/10/21 03:51:44;;;;;;;34.67;14.82;;;10.50;79.00;;;;;;4214723;27;20598;-85
2022/10/21 03:54:04;;;;;;;33.53;14.93;;;10.40;78.90;;;;;;4232017;27;20118;-84
2022/10/21 03:56:23;;;;;;;25.05;13.90;;;10.40;78.90;;;;;;4212976;28;20463;-85
2022/10/21 03:58:42;;;;;;;28.75;15.23;;;10.40;79.00;;;;;;4219435;27;20042;-84
2022/10/21 04:01:01;;;;;;;28.77;15.80;;;10.40;78.90;;;;;;4229539;27;20042;-84
2022/10/21 04:03:20;;;;;;;27.83;14.57;;;10.40;79.10;;;;;;4223836;27;20050;-84
2022/10/21 04:05:40;;;;;;;25.58;14.35;;;10.40;78.90;;;;;;4224980;27;20039;-84
2022/10/21 04:07:59;;;;;;;28.65;14.35;;;10.30;78.90;;;;;;4230768;27;20509;-84
2022/10/21 04:10:18;;;;;;;23.85;12.98;;;10.30;79.00;;;;;;4226143;27;20114;-84
2022/10/21 04:12:37;;;;;;;30.23;13.35;;;10.30;79.10;;;;;;4224300;27;20066;-84
2022/10/21 04:14:56;;;;;;;23.38;12.75;;;10.30;79.10;;;;;;4225234;27;20020;-84
2022/10/21 04:17:15;;;;;;;25.23;13.07;;;10.40;79.10;;;;;;4204749;28;20070;-84
2022/10/21 04:19:34;;;;;;;26.45;13.07;;;10.30;79.00;;;;;;4225326;27;20147;-85
2022/10/21 04:21:53;;;;;;;22.60;12.27;;;10.30;79.10;;;;;;4230426;27;20077;-85
2022/10/21 04:24:12;;;;;;;20.98;12.18;;;10.40;79.10;;;;;;4217135;28;20034;-84
2022/10/21 04:26:31;;;;;;;19.80;11.27;;;10.20;78.90;;;;;;4226681;27;20031;-84
2022/10/21 04:28:50;;;;;;;21.17;11.80;;;10.20;78.90;;;;;;4220163;28;20137;-84
2022/10/21 04:31:09;;;;;;;22.38;12.15;;;10.20;78.90;;;;;;4232690;28;20719;-84
2022/10/21 04:33:28;;;;;;;16.85;10.75;;;10.20;78.90;;;;;;4222540;27;20046;-84
2022/10/21 04:35:48;;;;;;;20.27;11.57;;;10.20;79.00;;;;;;4229538;28;20039;-84
2022/10/21 04:38:07;;;;;;;21.88;11.43;;;10.20;78.90;;;;;;4221695;28;20035;-84
2022/10/21 04:40:26;;;;;;;20.08;11.32;;;10.20;78.90;;;;;;4221379;27;20046;-84
2022/10/21 04:42:49;;;;;;;23.83;13.18;;;10.10;78.90;;;;;;4204279;28;20070;-84
2022/10/21 04:45:09;;;;;;;25.90;12.57;;;10.10;79.20;;;;;;4229312;28;20115;-84
2022/10/21 04:47:28;;;;;;;25.85;13.20;;;10.10;79.40;;;;;;4235716;28;20038;-84
2022/10/21 04:49:47;;;;;;;22.92;12.73;;;10.10;79.50;;;;;;4229700;28;20072;-84
2022/10/21 04:52:06;;;;;;;36.15;14.10;;;10.10;79.30;;;;;;4216354;28;20040;-84
2022/10/21 04:54:25;;;;;;;21.25;12.43;;;10.00;79.50;;;;;;4226871;28;20056;-84
2022/10/21 04:56:44;;;;;;;20.30;11.77;;;10.00;79.40;;;;;;4226063;28;20039;-85
2022/10/21 04:59:03;;;;;;;18.23;11.73;;;9.90;79.40;;;;;;4227409;28;20452;-84
2022/10/21 05:01:22;;;;;;;24.35;12.02;;;9.90;79.30;;;;;;4229546;28;20068;-85
2022/10/21 05:03:41;;;;;;;17.70;11.20;;;9.90;79.50;;;;;;4220978;28;20043;-84
2022/10/21 05:06:00;;;;;;;16.35;10.27;;;9.90;79.40;;;;;;4220330;28;20036;-84
2022/10/21 05:08:20;;;;;;;17.27;10.18;;;9.90;80.10;;;;;;4218533;28;20095;-84
2022/10/21 05:10:39;;;;;;;20.17;12.18;;;9.90;79.50;;;;;;4222576;28;20062;-84
2022/10/21 05:12:58;;;;;;;25.77;13.20;;;9.90;79.60;;;;;;4234399;28;20038;-84
2022/10/21 05:15:17;;;;;;;21.55;12.43;;;9.90;79.90;;;;;;4209714;28;20435;-84
2022/10/21 05:17:36;;;;;;;24.23;13.05;;;9.80;79.90;;;;;;4213960;28;20026;-84
2022/10/21 05:19:55;;;;;;;20.63;11.82;;;9.80;79.80;;;;;;4231730;28;20145;-84
2022/10/21 05:22:14;;;;;;;21.25;12.68;;;9.80;79.90;;;;;;4213687;28;20130;-83
2022/10/21 05:24:33;;;;;;;24.45;13.43;;;9.80;79.90;;;;;;4217597;27;20485;-84
2022/10/21 05:26:52;;;;;;;22.52;12.48;;;9.70;80.00;;;;;;4230924;27;20035;-85
2022/10/21 05:29:11;;;;;;;23.02;11.80;;;9.70;79.80;;;;;;4228778;27;20030;-84
2022/10/21 05:31:30;;;;;;;23.67;13.07;;;9.70;79.90;;;;;;4213377;28;20148;-84
2022/10/21 05:33:49;;;;;;;22.58;11.77;;;9.60;80.10;;;;;;4238592;27;20407;-84
2022/10/21 05:36:09;;;;;;;18.85;11.35;;;9.60;79.90;;;;;;4221276;27;20565;-84
2022/10/21 05:38:28;;;;;;;22.13;10.77;;;9.60;80.00;;;;;;4234876;27;20038;-84
2022/10/21 05:40:48;;;;;;;18.75;10.93;;;9.60;80.80;;;;;;4231346;27;20092;-84
2022/10/21 05:43:07;;;;;;;18.35;10.50;;;9.60;80.00;;;;;;4230305;27;20047;-83
2022/10/21 05:45:26;;;;;;;23.10;11.10;;;9.50;80.10;;;;;;4229661;27;20058;-84
2022/10/21 05:47:45;;;;;;;20.13;12.30;;;9.70;80.30;;;;;;4235655;27;20050;-84
2022/10/21 05:50:05;;;;;;;24.45;11.85;;;9.50;80.30;;;;;;4215033;28;20465;-84
2022/10/21 05:52:24;;;;;;;18.55;11.30;;;9.50;80.30;;;;;;4233091;27;20042;-84
2022/10/21 05:54:44;;;;;;;18.23;10.48;;;9.50;80.40;;;;;;4215694;28;20107;-84
2022/10/21 05:57:03;;;;;;;16.05;10.13;;;9.60;80.30;;;;;;4233608;27;20088;-84
2022/10/21 05:59:23;;;;;;;18.42;10.65;;;9.50;80.30;;;;;;4230530;27;20046;-84
2022/10/21 06:01:42;;;;;;;19.85;10.80;;;9.60;80.40;;;;;;4215455;27;20158;-84
2022/10/21 06:04:02;;;;;;;18.88;10.15;;;9.60;80.40;;;;;;4236224;27;20402;-84
2022/10/21 06:06:21;;;;;;;23.65;11.15;;;9.60;80.30;;;;;;4226255;27;20030;-85
2022/10/21 06:08:40;;;;;;;16.13;9.40;;;9.60;80.30;;;;;;4223953;27;20388;-84
2022/10/21 06:11:08;;;;;;;14.60;9.57;;;9.60;80.30;;;;;;4215566;28;20067;-84
2022/10/21 06:13:27;;;;;;;18.92;10.13;;;9.60;80.40;;;;;;4236293;27;20091;-84
2022/10/21 06:15:47;;;;;;;16.77;10.00;;;9.60;80.50;;;;;;4233636;27;20750;-84
2022/10/21 06:18:06;;;;;;;18.65;9.75;;;9.60;80.50;;;;;;4219734;27;20031;-84
2022/10/21 06:20:25;;;;;;;18.25;9.85;;;9.60;80.50;;;;;;4237730;27;20058;-84
2022/10/21 06:22:44;;;;;;;18.42;10.30;;;9.60;80.50;;;;;;4229529;27;20051;-84
2022/10/21 06:25:03;;;;;;;21.23;10.40;;;9.60;80.50;;;;;;4225529;27;20076;-84
2022/10/21 06:27:23;;;;;;;19.08;10.93;;;9.60;80.50;;;;;;4234964;27;20451;-84
2022/10/21 06:29:41;;;;;;;19.55;10.90;;;9.70;80.70;;;;;;4231820;27;20061;-84
2022/10/21 06:32:01;;;;;;;25.15;11.43;;;9.70;80.70;;;;;;4226786;27;20042;-84
2022/10/21 06:34:20;;;;;;;23.95;10.82;;;9.70;80.80;;;;;;4226617;27;20047;-85
2022/10/21 06:36:39;;;;;;;20.90;10.65;;;9.70;80.80;;;;;;4215385;27;20043;-84
2022/10/21 06:38:58;;;;;;;18.58;11.15;;;9.70;80.80;;;;;;4223180;27;20146;-84
2022/10/21 06:41:17;;;;;;;23.88;11.05;;;9.80;81.60;;;;;;4227203;27;20075;-84
2022/10/21 06:43:37;;;;;;;20.88;11.07;;;9.80;80.80;;;;;;4225125;27;20034;-84
2022/10/21 06:46:05;;;;;;;19.40;10.85;;;9.80;80.90;;;;;;4229749;27;20076;-84
2022/10/21 06:48:24;;;;;;;18.50;11.00;;;9.80;81.00;;;;;;4225898;27;20099;-84
2022/10/21 06:50:43;;;;;;;18.42;11.00;;;9.80;81.00;;;;;;4211641;28;20044;-84
2022/10/21 06:53:03;;;;;;;18.10;10.60;;;9.80;81.10;;;;;;4206146;27;20051;-84
2022/10/21 06:55:22;;;;;;;18.98;11.15;;;10.00;81.30;;;;;;4241553;27;20058;-84
2022/10/21 06:57:42;;;;;;;21.60;10.70;;;9.90;81.20;;;;;;4210690;28;20050;-85
2022/10/21 06:59:58;;;;;;;17.27;11.05;;;10.00;81.30;;;;;;4228113;27;20054;-84
2022/10/21 07:02:17;;;;;;;20.40;11.73;;;10.00;81.30;;;;;;4208392;28;20575;-85
2022/10/21 07:04:36;;;;;;;21.63;11.80;;;9.90;81.30;;;;;;4214803;27;20447;-84
2022/10/21 07:06:55;;;;;;;18.83;11.18;;;10.00;81.30;;;;;;4225364;27;20031;-84
2022/10/21 07:09:14;;;;;;;20.88;11.30;;;10.00;81.40;;;;;;4224027;27;20088;-85
2022/10/21 07:11:34;;;;;;;17.25;10.60;;;10.00;81.20;;;;;;4210349;27;20076;-85
2022/10/21 07:13:53;;;;;;;17.92;10.43;;;10.00;81.40;;;;;;4207733;27;20057;-84
2022/10/21 07:16:31;;;;;;;17.58;11.70;;;10.00;81.60;;;;;;4213628;28;20042;-84
2022/10/21 07:18:50;;;;;;;22.13;10.07;;;10.10;81.70;;;;;;4228725;27;20583;-84
2022/10/21 07:21:15;;;;;;;16.67;9.73;;;10.10;81.70;;;;;;4225324;27;20401;-85
2022/10/21 07:23:34;;;;;;;17.55;10.70;;;10.20;81.90;;;;;;4209527;28;20086;-84
2022/10/21 07:25:53;;;;;;;19.20;11.32;;;10.20;81.90;;;;;;4229774;27;20115;-85
2022/10/21 07:28:12;;;;;;;16.85;10.55;;;10.20;81.90;;;;;;4214515;27;20074;-84
2022/10/21 07:30:37;;;;;;;14.05;9.65;;;10.30;81.90;;;;;;4213862;28;20074;-84
2022/10/21 07:32:56;;;;;;;17.70;10.13;;;10.30;81.90;;;;;;4224556;27;20087;-84
2022/10/21 07:35:15;;;;;;;17.85;10.57;;;10.40;82.00;;;;;;4227169;27;20081;-84
2022/10/21 07:37:34;;;;;;;20.88;10.57;;;10.30;82.00;;;;;;4211176;28;20054;-85
2022/10/21 07:39:53;;;;;;;20.45;11.35;;;10.40;82.10;;;;;;4226795;27;20042;-84
2022/10/21 07:42:12;;;;;;;22.85;12.18;;;10.40;82.20;;;;;;4234958;27;20083;-84
2022/10/21 07:44:31;;;;;;;19.25;10.93;;;10.40;82.30;;;;;;4235885;27;20524;-84
2022/10/21 07:46:51;;;;;;;19.50;11.25;;;10.40;82.20;;;;;;4218653;28;20031;-84
2022/10/21 07:49:11;;;;;;;22.25;11.95;;;10.50;82.10;;;;;;4235366;27;20073;-84
2022/10/21 07:51:31;;;;;;;20.45;12.77;;;10.60;82.20;;;;;;4215505;27;20080;-84
2022/10/21 07:53:54;;;;;;;22.77;11.82;;;10.50;82.60;;;;;;4235819;27;20444;-84
2022/10/21 07:56:17;;;;;;;21.40;11.35;;;10.60;82.60;;;;;;4218367;27;20070;-84
2022/10/21 07:58:37;;;;;;;22.83;11.98;;;10.60;82.60;;;;;;4230957;27;20138;-85
2022/10/21 08:01:01;;;;;;;21.42;11.77;;;10.60;82.70;;;;;;4223075;27;20048;-84
2022/10/21 08:03:20;;;;;;;19.55;11.90;;;10.60;83.10;;;;;;4234958;27;20080;-85
2022/10/21 08:05:40;;;;;;;20.30;10.00;;;10.60;82.90;;;;;;4227839;27;20141;-84
2022/10/21 08:08:00;;;;;;;15.73;10.10;;;10.70;82.90;;;;;;4211902;28;20472;-84
2022/10/21 08:10:09;;;;;;;20.02;10.55;;;10.80;83.00;;;;;;4211890;28;20020;-85
2022/10/21 08:12:10;;;;;;;18.17;10.60;;;10.80;83.10;;;;;;4228895;27;20078;-85
2022/10/21 08:14:11;;;;;;;18.88;10.40;;;10.80;83.10;;;;;;4215413;28;20032;-85
2022/10/21 08:16:11;;;;;;;16.90;10.02;;;10.90;83.20;;;;;;4231936;27;20032;-85
2022/10/21 08:18:13;;;;;;;19.33;10.57;;;10.90;83.30;;;;;;4199805;28;20070;-85
2022/10/21 08:20:13;;;;;;;16.50;10.05;;;11.00;83.40;;;;;;4214738;28;20023;-85
2022/10/21 08:22:14;;;;;;;19.35;10.05;;;11.00;83.40;;;;;;4206703;28;20471;-85
2022/10/21 08:24:15;;;;;;;23.10;11.68;;;11.20;83.50;;;;;;4211037;28;20024;-85
2022/10/21 08:26:16;;;;;;;17.00;10.00;;;11.20;83.60;;;;;;4215062;28;20020;-85
2022/10/21 08:28:17;;;;;;;16.75;10.38;;;11.10;83.50;;;;;;4213460;28;20028;-84
2022/10/21 08:30:18;;;;;;;29.48;12.60;;;11.20;83.60;;;;;;4214179;28;20515;-85
2022/10/21 08:32:19;;;;;;;17.63;10.68;;;11.20;83.80;;;;;;4214196;28;20075;-84
2022/10/21 08:34:19;;;;;;;25.67;11.70;;;11.30;83.70;;;;;;4195649;28;20023;-85
2022/10/21 08:36:23;;;;;;;20.35;11.13;;;11.30;83.50;;;;;;4227808;27;20027;-85
2022/10/21 08:38:24;;;;;;;22.05;11.50;;;11.30;83.40;;;;;;4231937;27;20015;-85
2022/10/21 08:40:28;;;;;;;19.00;9.73;;;11.40;83.50;;;;;;4206317;28;20031;-85
2022/10/21 08:42:29;;;;;;;16.27;9.88;;;11.50;83.40;;;;;;4209930;28;20454;-85
2022/10/21 08:44:41;;;;;;;20.65;11.55;;;11.40;83.30;;;;;;4211989;28;20067;-84
2022/10/21 08:46:52;;;;;;;19.55;10.70;;;11.50;83.50;;;;;;4210392;28;20032;-85
2022/10/21 08:49:16;;;;;;;20.13;10.57;;;11.50;83.30;;;;;;4205060;28;20612;-85
2022/10/21 08:51:28;;;;;;;;;;;11.50;83.10;;;;;;4209630;28;20044;-85
2022/10/21 08:53:40;;;;;;;17.00;9.48;;;11.50;83.50;;;;;;4225893;28;19907;-84
2022/10/21 08:55:43;;;;;;;20.30;9.48;;;11.60;82.70;;;;;;4223644;28;20028;-85
2022/10/21 08:57:44;;;;;;;;;;;11.70;82.70;;;;;;4206561;28;20507;-84
2022/10/21 08:59:45;;;;;;;19.75;9.18;;;11.60;83.00;;;;;;4203793;28;19962;-85
2022/10/21 09:02:11;;;;;;;19.95;9.93;;;11.60;82.40;;;;;;4210699;28;20036;-85
2022/10/21 09:04:22;;;;;;;15.70;9.32;;;11.70;82.50;;;;;;4200926;28;20685;-84
2022/10/21 09:06:49;;;;;;;16.67;9.23;;;11.70;82.60;;;;;;4224074;27;20399;-85
2022/10/21 09:09:08;;;;;;;15.60;9.57;;;11.70;82.80;;;;;;4218571;27;20039;-85
2022/10/21 09:11:40;;;;;;;15.30;10.52;;;11.70;82.60;;;;;;4218085;28;20562;-86
2022/10/21 09:13:50;;;;;;;19.83;10.32;;;11.80;82.90;;;;;;4207235;28;20048;-85
2022/10/21 09:16:07;;;;;;;15.20;9.60;;;11.80;82.60;;;;;;4206328;28;20042;-84
2022/10/21 09:18:35;;;;;;;16.27;9.98;;;12.00;82.80;;;;;;4223632;27;20023;-84
2022/10/21 09:20:54;;;;;;;17.05;8.55;;;11.80;82.80;;;;;;4231904;27;20023;-85
2022/10/21 09:23:19;;;;;;;18.67;9.43;;;11.90;82.60;;;;;;4239072;27;20034;-84
2022/10/21 09:25:32;;;;;;;15.38;9.60;;;11.90;82.60;;;;;;4218661;28;20036;-84
2022/10/21 09:27:33;;;;;;;20.35;9.95;;;11.90;82.60;;;;;;4232231;27;20031;-85
2022/10/21 09:29:37;;;;;;;15.80;9.60;;;12.10;82.70;;;;;;4216931;28;20024;-85
2022/10/21 09:31:37;;;;;;;15.00;9.07;;;12.00;82.60;;;;;;4224721;28;20035;-85
2022/10/21 09:33:40;;;;;;;17.33;10.43;;;12.00;82.50;;;;;;4218018;28;20071;-84
2022/10/21 09:35:53;;;;;;;19.25;10.38;;;12.10;82.60;;;;;;4229585;27;20031;-84
2022/10/21 09:37:56;;;;;;;16.30;10.30;;;12.10;82.60;;;;;;4226369;27;20391;-85
2022/10/21 09:40:06;;;;;;;19.20;10.15;;;12.20;82.50;;;;;;4228674;27;20274;-85
2022/10/21 09:42:11;;;;;;;18.90;10.68;;;12.20;82.50;;;;;;4202295;28;20155;-85
2022/10/21 09:44:20;;;;;;;20.15;10.55;;;12.10;82.30;;;;;;4218352;28;20040;-85
2022/10/21 09:46:21;;;;;;;19.65;9.82;;;12.20;82.40;;;;;;4232312;27;20138;-85
2022/10/21 09:48:31;;;;;;;17.45;9.35;;;12.30;82.30;;;;;;4202242;28;20016;-85
2022/10/21 09:50:33;;;;;;;21.10;10.85;;;12.20;82.30;;;;;;4213008;28;20013;-84
2022/10/21 09:52:35;;;;;;;17.83;9.77;;;12.30;82.20;;;;;;4211864;28;20191;-84
2022/10/21 09:54:40;;;;;;;18.13;10.25;;;12.20;82.90;;;;;;4231221;27;20278;-85
2022/10/21 09:56:48;;;;;;;19.77;11.00;;;12.30;82.20;;;;;;4209168;28;20032;-84
2022/10/21 09:59:02;;;;;;;17.60;11.05;;;12.30;82.30;;;;;;4204683;28;20539;-84
2022/10/21 10:01:06;;;;;;;;;;;12.40;82.30;;;;;;4237160;27;20399;-85
2022/10/21 10:03:07;;;;;;;16.60;9.98;;;12.30;82.50;;;;;;4218371;28;20275;-85
2022/10/21 10:05:34;;;;;;;29.42;9.82;;;12.50;82.10;;;;;;4232529;27;20043;-85
2022/10/21 10:07:35;;;;;;;20.20;10.63;;;12.30;82.10;;;;;;4199713;28;20024;-85
2022/10/21 10:09:44;;;;;;;19.60;9.95;;;12.30;82.00;;;;;;4214830;28;20023;-84
2022/10/21 10:12:04;;;;;;;21.00;10.68;;;12.40;82.00;;;;;;4231236;27;20034;-85
2022/10/21 10:14:25;;;;;;;19.05;10.55;;;12.40;82.20;;;;;;4235057;27;20075;-84
2022/10/21 10:16:31;;;;;;;19.52;9.30;;;12.40;82.30;;;;;;4194212;28;20025;-84
2022/10/21 10:18:32;;;;;;;16.73;9.32;;;12.50;82.30;;;;;;4210438;28;20081;-85
2022/10/21 10:20:33;;;;;;;18.38;10.15;;;12.50;82.30;;;;;;4230702;27;20098;-85
2022/10/21 10:22:36;;;;;;;17.38;10.18;;;12.50;82.30;;;;;;4232422;27;20072;-84
2022/10/21 10:24:39;;;;;;;21.50;11.05;;;12.70;82.30;;;;;;4212465;28;20031;-84
2022/10/21 10:26:41;;;;;;;15.52;9.70;;;12.60;82.20;;;;;;4208190;28;20515;-84
2022/10/21 10:28:51;;;;;;;15.00;9.85;;;12.60;82.10;;;;;;4229781;27;20028;-85
2022/10/21 10:30:54;;;;;;;16.17;9.55;;;12.70;82.20;;;;;;4204168;28;20087;-84
2022/10/21 10:32:55;;;;;;;;;;;12.70;82.10;;;;;;4224813;27;20077;-84
2022/10/21 10:34:59;;;;;;;21.17;9.27;;;12.60;82.20;;;;;;4199275;28;20335;-85
2022/10/21 10:37:17;;;;;;;14.15;9.82;;;12.60;81.50;;;;;;4229063;27;20031;-85
2022/10/21 10:39:27;;;;;;;16.23;8.95;;;12.60;81.40;;;;;;4229741;27;20103;-84
2022/10/21 10:41:32;;;;;;;19.55;11.55;;;12.70;81.50;;;;;;4220404;28;20019;-85
2022/10/21 10:43:36;;;;;;;19.05;10.50;;;12.70;81.40;;;;;;4211383;28;20027;-85
2022/10/21 10:45:36;;;;;;;18.10;9.13;;;12.70;81.40;;;;;;4227627;27;20038;-85
2022/10/21 10:47:45;;;;;;;22.70;11.63;;;12.70;81.30;;;;;;4213668;28;20052;-85
2022/10/21 10:49:46;;;;;;;16.08;10.07;;;12.70;81.40;;;;;;4213231;28;20080;-85
2022/10/21 10:52:03;;;;;;;18.13;10.75;;;12.70;81.40;;;;;;4202018;28;20053;-85
2022/10/21 10:54:06;;;;;;;20.58;10.52;;;12.70;81.30;;;;;;4226009;27;20019;-84
2022/10/21 10:56:25;;;;;;;17.33;10.50;;;12.80;81.20;;;;;;4209365;28;20036;-85
2022/10/21 10:58:30;;;;;;;23.95;12.02;;;12.70;81.20;;;;;;4189869;28;20033;-85
2022/10/21 11:00:36;;;;;;;23.48;12.00;;;12.70;81.00;;;;;;4225080;27;20445;-84
2022/10/21 11:02:46;;;;;;;19.45;10.90;;;12.80;81.00;;;;;;4214805;28;20027;-84
2022/10/21 11:05:18;;;;;;;21.35;12.20;;;12.70;80.90;;;;;;4233206;27;20038;-84
2022/10/21 11:07:30;;;;;;;24.02;12.82;;;12.70;80.80;;;;;;4226518;27;20024;-84
2022/10/21 11:09:33;;;;;;;23.52;12.30;;;12.60;80.50;;;;;;4221181;27;20161;-84
2022/10/21 11:11:39;;;;;;;20.52;12.45;;;12.50;80.50;;;;;;4217283;28;20008;-85
2022/10/21 11:13:40;;;;;;;20.92;11.85;;;12.60;80.60;;;;;;4214796;28;20782;-84
2022/10/21 11:16:04;;;;;;;22.63;10.80;;;12.60;80.80;;;;;;4204315;28;20040;-85
2022/10/21 11:18:39;;;;;;;23.48;12.57;;;12.50;81.00;;;;;;4213991;28;20055;-85
2022/10/21 11:21:03;;;;;;;22.38;12.63;;;12.50;81.50;;;;;;4225181;27;20093;-85
2022/10/21 11:23:04;;;;;;;22.67;13.25;;;12.50;81.50;;;;;;4154327;28;20065;-85
2022/10/21 11:25:37;;;;;;;22.77;13.55;;;12.70;81.80;;;;;;4151157;28;20042;-85
2022/10/21 11:27:47;;;;;;;18.88;11.65;;;12.60;82.10;;;;;;4180032;28;20123;-85
2022/10/21 11:29:53;;;;;;;24.00;12.88;;;12.60;83.00;;;;;;4143561;28;20140;-85
2022/10/21 11:32:16;;;;;;;23.50;12.43;;;12.60;82.70;;;;;;4175600;28;20033;-84
2022/10/21 11:34:29;;;;;;;19.83;12.07;;;12.70;83.20;;;;;;4177260;28;20033;-85
2022/10/21 11:37:24;;;;;;;22.40;12.98;;;12.80;83.30;;;;;;4161597;28;20124;-85
2022/10/21 11:39:37;;;;;;;21.27;11.65;;;12.90;83.40;;;;;;4124637;28;20057;-84
2022/10/21 11:41:43;;;;;;;17.08;10.32;;;12.90;82.90;;;;;;4109898;28;20038;-85